sensor_id;sensor_type;location;lat;lon;timestamp;P1;durP1;ratioP1;P2;durP2;ratioP2
85312;SDS011;75717;50.496;7.560;2024-03-23T00:56:14;50.10;;;20.25;;
85312;SDS011;75717;50.496;7.560;2024-03-23T00:58:40;55.80;;;20.00;;
85312;SDS011;75717;50.496;7.560;2024-03-23T01:01:05;50.03;;;20.38;;
85312;SDS011;75717;50.496;7.560;2024-03-23T01:03:30;54.97;;;20.60;;
85312;SDS011;75717;50.496;7.560;2024-03-23T01:06:02;58.60;;;20.65;;
85312;SDS011;75717;50.496;7.560;2024-03-23T01:08:28;55.42;;;21.33;;
85312;SDS011;75717;50.496;7.560;2024-03-23T01:10:57;35.80;;;14.60;;
85312;SDS011;75717;50.496;7.560;2024-03-23T01:13:23;30.20;;;12.15;;
85312;SDS011;75717;50.496;7.560;2024-03-23T01:15:52;24.35;;;10.27;;
85312;SDS011;75717;50.496;7.560;2024-03-23T01:18:18;22.77;;;9.70;;
85312;SDS011;75717;50.496;7.560;2024-03-23T01:20:44;19.02;;;9.05;;
85312;SDS011;75717;50.496;7.560;2024-03-23T01:23:09;20.45;;;8.93;;
85312;SDS011;75717;50.496;7.560;2024-03-23T01:25:35;20.58;;;9.00;;
85312;SDS011;75717;50.496;7.560;2024-03-23T01:28:00;20.80;;;7.47;;
85312;SDS011;75717;50.496;7.560;2024-03-23T01:30:26;12.77;;;6.50;;
85312;SDS011;75717;50.496;7.560;2024-03-23T01:32:51;10.93;;;4.73;;
85312;SDS011;75717;50.496;7.560;2024-03-23T01:35:16;8.50;;;4.23;;
85312;SDS011;75717;50.496;7.560;2024-03-23T01:37:41;10.70;;;3.40;;
85312;SDS011;75717;50.496;7.560;2024-03-23T01:40:07;4.13;;;2.00;;
85312;SDS011;75717;50.496;7.560;2024-03-23T01:42:33;3.28;;;1.92;;
85312;SDS011;75717;50.496;7.560;2024-03-23T01:44:58;5.20;;;2.27;;
85312;SDS011;75717;50.496;7.560;2024-03-23T01:47:23;5.32;;;2.78;;
85312;SDS011;75717;50.496;7.560;2024-03-23T01:49:48;3.43;;;2.13;;
85312;SDS011;75717;50.496;7.560;2024-03-23T01:52:14;3.28;;;1.73;;
85312;SDS011;75717;50.496;7.560;2024-03-23T01:54:40;4.53;;;2.42;;
85312;SDS011;75717;50.496;7.560;2024-03-23T01:57:05;3.33;;;1.77;;
85312;SDS011;75717;50.496;7.560;2024-03-23T01:59:31;3.67;;;2.00;;
85312;SDS011;75717;50.496;7.560;2024-03-23T02:01:56;4.32;;;2.08;;
85312;SDS011;75717;50.496;7.560;2024-03-23T02:04:21;5.93;;;2.57;;
85312;SDS011;75717;50.496;7.560;2024-03-23T02:06:47;4.32;;;2.10;;
85312;SDS011;75717;50.496;7.560;2024-03-23T02:09:13;5.68;;;2.90;;
85312;SDS011;75717;50.496;7.560;2024-03-23T02:11:38;6.37;;;2.37;;
85312;SDS011;75717;50.496;7.560;2024-03-23T02:14:04;5.97;;;2.43;;
85312;SDS011;75717;50.496;7.560;2024-03-23T02:16:29;4.85;;;2.33;;
85312;SDS011;75717;50.496;7.560;2024-03-23T02:18:54;2.47;;;1.67;;
85312;SDS011;75717;50.496;7.560;2024-03-23T02:21:20;9.75;;;3.15;;
85312;SDS011;75717;50.496;7.560;2024-03-23T02:23:45;10.23;;;2.60;;
85312;SDS011;75717;50.496;7.560;2024-03-23T02:26:10;7.83;;;2.40;;
85312;SDS011;75717;50.496;7.560;2024-03-23T02:28:35;3.57;;;2.23;;
85312;SDS011;75717;50.496;7.560;2024-03-23T02:31:01;4.17;;;1.90;;
85312;SDS011;75717;50.496;7.560;2024-03-23T02:33:27;6.55;;;1.98;;
85312;SDS011;75717;50.496;7.560;2024-03-23T02:35:55;5.13;;;2.35;;
85312;SDS011;75717;50.496;7.560;2024-03-23T02:38:20;5.75;;;2.90;;
85312;SDS011;75717;50.496;7.560;2024-03-23T02:40:46;6.00;;;2.33;;
85312;SDS011;75717;50.496;7.560;2024-03-23T02:43:11;4.30;;;2.07;;
85312;SDS011;75717;50.496;7.560;2024-03-23T02:45:36;4.30;;;2.33;;
85312;SDS011;75717;50.496;7.560;2024-03-23T02:48:02;5.55;;;2.75;;
85312;SDS011;75717;50.496;7.560;2024-03-23T02:50:27;4.75;;;2.50;;
85312;SDS011;75717;50.496;7.560;2024-03-23T02:52:52;6.68;;;2.75;;
85312;SDS011;75717;50.496;7.560;2024-03-23T02:55:18;5.30;;;2.60;;
85312;SDS011;75717;50.496;7.560;2024-03-23T02:57:43;4.33;;;2.00;;
85312;SDS011;75717;50.496;7.560;2024-03-23T03:00:09;5.22;;;2.53;;
85312;SDS011;75717;50.496;7.560;2024-03-23T03:02:36;4.43;;;2.60;;
85312;SDS011;75717;50.496;7.560;2024-03-23T03:05:02;6.13;;;3.10;;
85312;SDS011;75717;50.496;7.560;2024-03-23T03:07:29;5.63;;;2.55;;
85312;SDS011;75717;50.496;7.560;2024-03-23T03:09:55;5.60;;;3.00;;
85312;SDS011;75717;50.496;7.560;2024-03-23T03:12:20;6.20;;;2.70;;
85312;SDS011;75717;50.496;7.560;2024-03-23T03:14:45;5.10;;;2.80;;
85312;SDS011;75717;50.496;7.560;2024-03-23T03:17:11;6.40;;;3.17;;
85312;SDS011;75717;50.496;7.560;2024-03-23T03:19:36;6.30;;;2.70;;
85312;SDS011;75717;50.496;7.560;2024-03-23T03:22:01;7.53;;;2.90;;
85312;SDS011;75717;50.496;7.560;2024-03-23T03:24:27;6.97;;;3.08;;
85312;SDS011;75717;50.496;7.560;2024-03-23T03:26:52;8.30;;;3.40;;
85312;SDS011;75717;50.496;7.560;2024-03-23T03:29:17;6.07;;;3.03;;
85312;SDS011;75717;50.496;7.560;2024-03-23T03:31:43;6.73;;;2.37;;
85312;SDS011;75717;50.496;7.560;2024-03-23T03:34:09;7.03;;;2.55;;
85312;SDS011;75717;50.496;7.560;2024-03-23T03:36:34;6.57;;;2.58;;
85312;SDS011;75717;50.496;7.560;2024-03-23T03:38:59;4.35;;;2.10;;
85312;SDS011;75717;50.496;7.560;2024-03-23T03:41:25;5.17;;;2.43;;
85312;SDS011;75717;50.496;7.560;2024-03-23T03:43:50;5.30;;;2.03;;
85312;SDS011;75717;50.496;7.560;2024-03-23T03:46:15;8.30;;;2.72;;
85312;SDS011;75717;50.496;7.560;2024-03-23T03:48:41;4.77;;;2.17;;
85312;SDS011;75717;50.496;7.560;2024-03-23T03:51:06;4.80;;;2.20;;
85312;SDS011;75717;50.496;7.560;2024-03-23T03:53:31;5.72;;;2.30;;
85312;SDS011;75717;50.496;7.560;2024-03-23T03:56:00;6.32;;;2.30;;
85312;SDS011;75717;50.496;7.560;2024-03-23T03:58:25;4.40;;;2.38;;
85312;SDS011;75717;50.496;7.560;2024-03-23T04:00:51;4.20;;;1.97;;
85312;SDS011;75717;50.496;7.560;2024-03-23T04:03:16;5.13;;;1.90;;
85312;SDS011;75717;50.496;7.560;2024-03-23T04:05:41;5.33;;;2.03;;
85312;SDS011;75717;50.496;7.560;2024-03-23T04:08:07;4.00;;;2.10;;
85312;SDS011;75717;50.496;7.560;2024-03-23T04:10:32;6.47;;;2.42;;
85312;SDS011;75717;50.496;7.560;2024-03-23T04:12:58;3.67;;;1.57;;
85312;SDS011;75717;50.496;7.560;2024-03-23T04:15:23;3.30;;;1.90;;
85312;SDS011;75717;50.496;7.560;2024-03-23T04:17:48;3.37;;;1.53;;
85312;SDS011;75717;50.496;7.560;2024-03-23T04:20:14;2.27;;;1.27;;
85312;SDS011;75717;50.496;7.560;2024-03-23T04:22:41;4.95;;;2.30;;
85312;SDS011;75717;50.496;7.560;2024-03-23T04:25:07;2.60;;;1.38;;
85312;SDS011;75717;50.496;7.560;2024-03-23T04:27:33;7.27;;;3.87;;
85312;SDS011;75717;50.496;7.560;2024-03-23T04:29:58;4.80;;;1.67;;
85312;SDS011;75717;50.496;7.560;2024-03-23T04:32:25;6.90;;;1.80;;
85312;SDS011;75717;50.496;7.560;2024-03-23T04:34:51;3.80;;;1.42;;
85312;SDS011;75717;50.496;7.560;2024-03-23T04:37:16;3.73;;;1.30;;
85312;SDS011;75717;50.496;7.560;2024-03-23T04:39:43;4.32;;;1.75;;
85312;SDS011;75717;50.496;7.560;2024-03-23T04:42:08;3.40;;;1.50;;
85312;SDS011;75717;50.496;7.560;2024-03-23T04:44:33;5.90;;;1.50;;
85312;SDS011;75717;50.496;7.560;2024-03-23T04:47:00;3.83;;;1.33;;
85312;SDS011;75717;50.496;7.560;2024-03-23T04:49:25;6.85;;;2.38;;
85312;SDS011;75717;50.496;7.560;2024-03-23T04:51:50;3.97;;;1.08;;
85312;SDS011;75717;50.496;7.560;2024-03-23T04:54:16;6.15;;;1.90;;
85312;SDS011;75717;50.496;7.560;2024-03-23T04:56:41;4.00;;;1.45;;
85312;SDS011;75717;50.496;7.560;2024-03-23T04:59:07;10.45;;;1.55;;
85312;SDS011;75717;50.496;7.560;2024-03-23T05:01:32;7.00;;;1.85;;
85312;SDS011;75717;50.496;7.560;2024-03-23T05:03:57;4.97;;;2.00;;
85312;SDS011;75717;50.496;7.560;2024-03-23T05:06:23;9.88;;;2.08;;
85312;SDS011;75717;50.496;7.560;2024-03-23T05:08:49;7.05;;;2.15;;
85312;SDS011;75717;50.496;7.560;2024-03-23T05:11:14;5.30;;;1.90;;
85312;SDS011;75717;50.496;7.560;2024-03-23T05:13:40;4.07;;;1.73;;
85312;SDS011;75717;50.496;7.560;2024-03-23T05:16:06;8.18;;;2.13;;
85312;SDS011;75717;50.496;7.560;2024-03-23T05:18:31;7.60;;;1.60;;
85312;SDS011;75717;50.496;7.560;2024-03-23T05:20:57;9.70;;;2.27;;
85312;SDS011;75717;50.496;7.560;2024-03-23T05:23:23;8.85;;;2.45;;
85312;SDS011;75717;50.496;7.560;2024-03-23T05:25:48;8.93;;;2.08;;
85312;SDS011;75717;50.496;7.560;2024-03-23T05:28:14;13.53;;;2.37;;
85312;SDS011;75717;50.496;7.560;2024-03-23T05:30:39;3.37;;;1.30;;
85312;SDS011;75717;50.496;7.560;2024-03-23T05:33:05;5.93;;;2.35;;
85312;SDS011;75717;50.496;7.560;2024-03-23T05:35:30;6.93;;;2.10;;
85312;SDS011;75717;50.496;7.560;2024-03-23T05:37:56;10.93;;;2.20;;
85312;SDS011;75717;50.496;7.560;2024-03-23T05:40:23;5.07;;;2.30;;
85312;SDS011;75717;50.496;7.560;2024-03-23T05:42:48;6.50;;;2.70;;
85312;SDS011;75717;50.496;7.560;2024-03-23T05:45:14;7.00;;;2.55;;
85312;SDS011;75717;50.496;7.560;2024-03-23T05:47:39;9.77;;;3.08;;
85312;SDS011;75717;50.496;7.560;2024-03-23T05:50:04;10.67;;;3.13;;
85312;SDS011;75717;50.496;7.560;2024-03-23T05:52:30;10.07;;;3.30;;
85312;SDS011;75717;50.496;7.560;2024-03-23T05:54:55;9.65;;;4.03;;
85312;SDS011;75717;50.496;7.560;2024-03-23T05:57:20;8.37;;;3.50;;
85312;SDS011;75717;50.496;7.560;2024-03-23T05:59:46;7.77;;;3.70;;
85312;SDS011;75717;50.496;7.560;2024-03-23T06:02:11;10.73;;;4.20;;
85312;SDS011;75717;50.496;7.560;2024-03-23T06:04:36;13.13;;;4.23;;
85312;SDS011;75717;50.496;7.560;2024-03-23T06:07:02;10.60;;;4.03;;
85312;SDS011;75717;50.496;7.560;2024-03-23T06:09:27;15.48;;;4.07;;
85312;SDS011;75717;50.496;7.560;2024-03-23T06:11:56;14.50;;;4.07;;
85312;SDS011;75717;50.496;7.560;2024-03-23T06:14:21;10.37;;;4.40;;
85312;SDS011;75717;50.496;7.560;2024-03-23T06:16:47;17.35;;;5.43;;
85312;SDS011;75717;50.496;7.560;2024-03-23T06:19:12;15.13;;;4.93;;
85312;SDS011;75717;50.496;7.560;2024-03-23T06:21:37;14.93;;;4.97;;
85312;SDS011;75717;50.496;7.560;2024-03-23T06:24:08;17.23;;;5.32;;
85312;SDS011;75717;50.496;7.560;2024-03-23T06:26:33;21.73;;;6.50;;
85312;SDS011;75717;50.496;7.560;2024-03-23T06:28:58;30.67;;;11.53;;
85312;SDS011;75717;50.496;7.560;2024-03-23T06:31:24;16.30;;;5.20;;
85312;SDS011;75717;50.496;7.560;2024-03-23T06:33:49;8.18;;;3.67;;
85312;SDS011;75717;50.496;7.560;2024-03-23T06:36:14;17.00;;;4.87;;
85312;SDS011;75717;50.496;7.560;2024-03-23T06:38:40;15.03;;;4.63;;
85312;SDS011;75717;50.496;7.560;2024-03-23T06:41:05;12.00;;;4.13;;
85312;SDS011;75717;50.496;7.560;2024-03-23T06:43:31;17.75;;;4.45;;
85312;SDS011;75717;50.496;7.560;2024-03-23T06:45:56;10.87;;;4.07;;
85312;SDS011;75717;50.496;7.560;2024-03-23T06:48:21;10.63;;;3.80;;
85312;SDS011;75717;50.496;7.560;2024-03-23T06:50:47;15.23;;;3.65;;
85312;SDS011;75717;50.496;7.560;2024-03-23T06:53:13;19.25;;;4.93;;
85312;SDS011;75717;50.496;7.560;2024-03-23T06:55:39;10.18;;;3.53;;
85312;SDS011;75717;50.496;7.560;2024-03-23T06:58:04;12.30;;;3.67;;
85312;SDS011;75717;50.496;7.560;2024-03-23T07:00:30;8.70;;;2.67;;
85312;SDS011;75717;50.496;7.560;2024-03-23T07:02:55;19.15;;;4.40;;
85312;SDS011;75717;50.496;7.560;2024-03-23T07:05:21;15.10;;;5.05;;
85312;SDS011;75717;50.496;7.560;2024-03-23T07:07:46;11.47;;;2.60;;
85312;SDS011;75717;50.496;7.560;2024-03-23T07:10:11;10.10;;;2.93;;
85312;SDS011;75717;50.496;7.560;2024-03-23T07:12:36;9.03;;;2.53;;
85312;SDS011;75717;50.496;7.560;2024-03-23T07:15:02;17.07;;;3.03;;
85312;SDS011;75717;50.496;7.560;2024-03-23T07:17:27;11.93;;;2.88;;
85312;SDS011;75717;50.496;7.560;2024-03-23T07:19:53;16.88;;;2.85;;
85312;SDS011;75717;50.496;7.560;2024-03-23T07:22:18;9.43;;;2.33;;
85312;SDS011;75717;50.496;7.560;2024-03-23T07:24:43;12.70;;;2.80;;
85312;SDS011;75717;50.496;7.560;2024-03-23T07:27:09;9.52;;;2.80;;
85312;SDS011;75717;50.496;7.560;2024-03-23T07:29:35;7.10;;;2.03;;
85312;SDS011;75717;50.496;7.560;2024-03-23T07:32:00;9.10;;;2.25;;
85312;SDS011;75717;50.496;7.560;2024-03-23T07:34:26;9.33;;;2.53;;
85312;SDS011;75717;50.496;7.560;2024-03-23T07:36:51;13.53;;;2.70;;
85312;SDS011;75717;50.496;7.560;2024-03-23T07:39:16;6.73;;;2.47;;
85312;SDS011;75717;50.496;7.560;2024-03-23T07:41:44;12.63;;;3.33;;
85312;SDS011;75717;50.496;7.560;2024-03-23T07:44:10;6.47;;;2.22;;
85312;SDS011;75717;50.496;7.560;2024-03-23T07:46:35;17.27;;;4.47;;
85312;SDS011;75717;50.496;7.560;2024-03-23T07:49:00;11.20;;;3.13;;
85312;SDS011;75717;50.496;7.560;2024-03-23T07:51:25;9.17;;;2.90;;
85312;SDS011;75717;50.496;7.560;2024-03-23T07:53:51;7.40;;;2.37;;
85312;SDS011;75717;50.496;7.560;2024-03-23T07:56:17;9.38;;;2.58;;
85312;SDS011;75717;50.496;7.560;2024-03-23T07:58:44;11.07;;;3.03;;
85312;SDS011;75717;50.496;7.560;2024-03-23T08:01:10;7.53;;;2.25;;
85312;SDS011;75717;50.496;7.560;2024-03-23T08:03:37;9.32;;;3.05;;
85312;SDS011;75717;50.496;7.560;2024-03-23T08:08:42;9.80;;;2.67;;
85312;SDS011;75717;50.496;7.560;2024-03-23T08:11:09;14.93;;;2.65;;
85312;SDS011;75717;50.496;7.560;2024-03-23T08:13:34;11.20;;;2.75;;
85312;SDS011;75717;50.496;7.560;2024-03-23T08:16:01;13.35;;;3.22;;
85312;SDS011;75717;50.496;7.560;2024-03-23T08:18:28;7.43;;;2.83;;
85312;SDS011;75717;50.496;7.560;2024-03-23T08:21:00;9.80;;;2.90;;
85312;SDS011;75717;50.496;7.560;2024-03-23T08:23:26;11.25;;;3.55;;
85312;SDS011;75717;50.496;7.560;2024-03-23T08:25:52;10.98;;;3.00;;
85312;SDS011;75717;50.496;7.560;2024-03-23T08:28:22;9.63;;;3.03;;
85312;SDS011;75717;50.496;7.560;2024-03-23T08:30:47;13.37;;;2.93;;
85312;SDS011;75717;50.496;7.560;2024-03-23T08:33:14;7.75;;;2.10;;
85312;SDS011;75717;50.496;7.560;2024-03-23T08:35:39;13.70;;;2.90;;
85312;SDS011;75717;50.496;7.560;2024-03-23T08:38:05;12.70;;;3.08;;
85312;SDS011;75717;50.496;7.560;2024-03-23T08:40:30;9.07;;;2.28;;
85312;SDS011;75717;50.496;7.560;2024-03-23T08:42:55;7.50;;;2.77;;
85312;SDS011;75717;50.496;7.560;2024-03-23T08:45:21;13.45;;;3.42;;
85312;SDS011;75717;50.496;7.560;2024-03-23T08:47:46;6.05;;;2.53;;
85312;SDS011;75717;50.496;7.560;2024-03-23T08:50:11;14.32;;;2.55;;
85312;SDS011;75717;50.496;7.560;2024-03-23T08:52:37;5.80;;;1.90;;
85312;SDS011;75717;50.496;7.560;2024-03-23T08:55:02;9.68;;;2.55;;
85312;SDS011;75717;50.496;7.560;2024-03-23T08:57:29;13.30;;;2.65;;
85312;SDS011;75717;50.496;7.560;2024-03-23T08:59:54;5.77;;;2.10;;
85312;SDS011;75717;50.496;7.560;2024-03-23T09:02:19;7.57;;;2.70;;
85312;SDS011;75717;50.496;7.560;2024-03-23T09:04:44;7.73;;;2.20;;
85312;SDS011;75717;50.496;7.560;2024-03-23T09:07:10;5.47;;;1.50;;
85312;SDS011;75717;50.496;7.560;2024-03-23T09:09:37;9.80;;;1.95;;
85312;SDS011;75717;50.496;7.560;2024-03-23T09:12:03;5.97;;;1.65;;
85312;SDS011;75717;50.496;7.560;2024-03-23T09:14:29;6.07;;;2.28;;
85312;SDS011;75717;50.496;7.560;2024-03-23T09:16:54;8.18;;;2.10;;
85312;SDS011;75717;50.496;7.560;2024-03-23T09:19:20;6.10;;;1.77;;
85312;SDS011;75717;50.496;7.560;2024-03-23T09:21:45;5.93;;;1.73;;
85312;SDS011;75717;50.496;7.560;2024-03-23T09:24:10;6.93;;;1.77;;
85312;SDS011;75717;50.496;7.560;2024-03-23T09:26:36;7.07;;;2.00;;
85312;SDS011;75717;50.496;7.560;2024-03-23T09:29:01;6.77;;;2.30;;
85312;SDS011;75717;50.496;7.560;2024-03-23T09:31:26;4.77;;;1.97;;
85312;SDS011;75717;50.496;7.560;2024-03-23T09:33:52;9.15;;;2.58;;
85312;SDS011;75717;50.496;7.560;2024-03-23T09:36:18;11.48;;;2.97;;
85312;SDS011;75717;50.496;7.560;2024-03-23T09:38:43;8.13;;;2.53;;
85312;SDS011;75717;50.496;7.560;2024-03-23T09:41:08;6.77;;;2.27;;
85312;SDS011;75717;50.496;7.560;2024-03-23T09:43:34;9.88;;;2.30;;
85312;SDS011;75717;50.496;7.560;2024-03-23T09:46:00;7.85;;;2.50;;
85312;SDS011;75717;50.496;7.560;2024-03-23T09:48:27;8.52;;;1.88;;
85312;SDS011;75717;50.496;7.560;2024-03-23T09:50:52;9.82;;;2.53;;
85312;SDS011;75717;50.496;7.560;2024-03-23T09:53:17;10.27;;;2.30;;
85312;SDS011;75717;50.496;7.560;2024-03-23T09:55:43;13.20;;;2.63;;
85312;SDS011;75717;50.496;7.560;2024-03-23T09:58:12;6.28;;;2.35;;
85312;SDS011;75717;50.496;7.560;2024-03-23T10:00:37;7.65;;;2.20;;
85312;SDS011;75717;50.496;7.560;2024-03-23T10:03:03;14.43;;;3.00;;
85312;SDS011;75717;50.496;7.560;2024-03-23T10:05:30;10.93;;;3.10;;
85312;SDS011;75717;50.496;7.560;2024-03-23T10:08:17;9.15;;;2.50;;
85312;SDS011;75717;50.496;7.560;2024-03-23T10:10:44;9.98;;;2.25;;
85312;SDS011;75717;50.496;7.560;2024-03-23T10:13:10;6.53;;;2.05;;
85312;SDS011;75717;50.496;7.560;2024-03-23T10:15:38;35.33;;;12.57;;
85312;SDS011;75717;50.496;7.560;2024-03-23T10:20:40;8.35;;;3.22;;
85312;SDS011;75717;50.496;7.560;2024-03-23T10:23:06;7.83;;;2.03;;
85312;SDS011;75717;50.496;7.560;2024-03-23T10:25:40;6.07;;;2.10;;
85312;SDS011;75717;50.496;7.560;2024-03-23T10:28:06;8.60;;;2.30;;
85312;SDS011;75717;50.496;7.560;2024-03-23T10:30:31;9.05;;;2.70;;
85312;SDS011;75717;50.496;7.560;2024-03-23T10:33:12;7.10;;;2.37;;
85312;SDS011;75717;50.496;7.560;2024-03-23T10:35:38;7.35;;;2.00;;
85312;SDS011;75717;50.496;7.560;2024-03-23T10:38:07;8.65;;;2.40;;
85312;SDS011;75717;50.496;7.560;2024-03-23T10:40:36;6.63;;;2.53;;
85312;SDS011;75717;50.496;7.560;2024-03-23T10:43:02;5.97;;;1.67;;
85312;SDS011;75717;50.496;7.560;2024-03-23T10:45:28;6.90;;;2.25;;
85312;SDS011;75717;50.496;7.560;2024-03-23T10:47:54;10.07;;;2.10;;
85312;SDS011;75717;50.496;7.560;2024-03-23T10:50:19;6.90;;;1.73;;
85312;SDS011;75717;50.496;7.560;2024-03-23T10:52:46;8.43;;;1.85;;
85312;SDS011;75717;50.496;7.560;2024-03-23T10:55:12;11.65;;;4.07;;
85312;SDS011;75717;50.496;7.560;2024-03-23T10:57:50;8.30;;;1.85;;
85312;SDS011;75717;50.496;7.560;2024-03-23T11:00:17;6.38;;;1.85;;
85312;SDS011;75717;50.496;7.560;2024-03-23T11:02:42;6.43;;;1.98;;
85312;SDS011;75717;50.496;7.560;2024-03-23T11:07:51;10.20;;;1.40;;
85312;SDS011;75717;50.496;7.560;2024-03-23T11:10:30;3.03;;;1.50;;
85312;SDS011;75717;50.496;7.560;2024-03-23T11:12:57;2.38;;;0.98;;
85312;SDS011;75717;50.496;7.560;2024-03-23T11:15:22;1.95;;;0.82;;
85312;SDS011;75717;50.496;7.560;2024-03-23T11:18:04;1.27;;;0.73;;
85312;SDS011;75717;50.496;7.560;2024-03-23T11:23:02;2.20;;;1.20;;
85312;SDS011;75717;50.496;7.560;2024-03-23T11:25:28;1.50;;;1.00;;
85312;SDS011;75717;50.496;7.560;2024-03-23T11:27:54;1.52;;;1.10;;
85312;SDS011;75717;50.496;7.560;2024-03-23T11:30:23;2.20;;;1.08;;
85312;SDS011;75717;50.496;7.560;2024-03-23T11:32:49;2.78;;;1.30;;
85312;SDS011;75717;50.496;7.560;2024-03-23T11:35:25;6.50;;;2.78;;
85312;SDS011;75717;50.496;7.560;2024-03-23T11:40:28;4.50;;;1.45;;
85312;SDS011;75717;50.496;7.560;2024-03-23T11:45:47;3.72;;;1.50;;
85312;SDS011;75717;50.496;7.560;2024-03-23T11:50:44;0.80;;;0.60;;
85312;SDS011;75717;50.496;7.560;2024-03-23T11:58:08;5.65;;;0.93;;
85312;SDS011;75717;50.496;7.560;2024-03-23T12:00:34;3.38;;;1.67;;
85312;SDS011;75717;50.496;7.560;2024-03-23T12:03:00;2.78;;;1.15;;
85312;SDS011;75717;50.496;7.560;2024-03-23T12:05:29;2.50;;;1.00;;
85312;SDS011;75717;50.496;7.560;2024-03-23T12:07:54;3.22;;;1.45;;
85312;SDS011;75717;50.496;7.560;2024-03-23T12:10:20;4.20;;;1.50;;
85312;SDS011;75717;50.496;7.560;2024-03-23T12:12:46;2.35;;;1.40;;
85312;SDS011;75717;50.496;7.560;2024-03-23T12:15:11;5.90;;;1.45;;
85312;SDS011;75717;50.496;7.560;2024-03-23T12:17:37;3.40;;;1.65;;
85312;SDS011;75717;50.496;7.560;2024-03-23T12:20:03;4.97;;;1.17;;
85312;SDS011;75717;50.496;7.560;2024-03-23T12:22:29;1.65;;;1.00;;
85312;SDS011;75717;50.496;7.560;2024-03-23T12:24:55;4.43;;;1.52;;
85312;SDS011;75717;50.496;7.560;2024-03-23T12:27:20;2.50;;;1.48;;
85312;SDS011;75717;50.496;7.560;2024-03-23T12:29:45;4.33;;;1.30;;
85312;SDS011;75717;50.496;7.560;2024-03-23T12:32:12;3.40;;;2.15;;
85312;SDS011;75717;50.496;7.560;2024-03-23T12:34:37;2.47;;;1.65;;
85312;SDS011;75717;50.496;7.560;2024-03-23T12:37:03;4.80;;;1.63;;
85312;SDS011;75717;50.496;7.560;2024-03-23T12:39:28;4.07;;;1.70;;
85312;SDS011;75717;50.496;7.560;2024-03-23T12:41:54;2.75;;;1.35;;
85312;SDS011;75717;50.496;7.560;2024-03-23T12:44:19;2.67;;;1.70;;
85312;SDS011;75717;50.496;7.560;2024-03-23T12:46:44;5.90;;;1.40;;
85312;SDS011;75717;50.496;7.560;2024-03-23T12:49:10;3.67;;;1.38;;
85312;SDS011;75717;50.496;7.560;2024-03-23T12:51:36;6.53;;;1.98;;
85312;SDS011;75717;50.496;7.560;2024-03-23T12:54:01;4.50;;;1.55;;
85312;SDS011;75717;50.496;7.560;2024-03-23T12:56:27;6.20;;;2.42;;
85312;SDS011;75717;50.496;7.560;2024-03-23T12:58:58;9.77;;;3.55;;
85312;SDS011;75717;50.496;7.560;2024-03-23T13:01:23;5.87;;;2.10;;
85312;SDS011;75717;50.496;7.560;2024-03-23T13:03:49;6.43;;;2.30;;
85312;SDS011;75717;50.496;7.560;2024-03-23T13:06:15;5.00;;;1.80;;
85312;SDS011;75717;50.496;7.560;2024-03-23T13:08:47;4.90;;;1.88;;
85312;SDS011;75717;50.496;7.560;2024-03-23T13:11:14;7.95;;;3.00;;
85312;SDS011;75717;50.496;7.560;2024-03-23T13:13:40;4.68;;;1.85;;
85312;SDS011;75717;50.496;7.560;2024-03-23T13:16:06;9.25;;;3.60;;
85312;SDS011;75717;50.496;7.560;2024-03-23T13:18:32;6.77;;;2.70;;
85312;SDS011;75717;50.496;7.560;2024-03-23T13:20:57;5.80;;;1.83;;
85312;SDS011;75717;50.496;7.560;2024-03-23T13:23:23;6.32;;;2.22;;
85312;SDS011;75717;50.496;7.560;2024-03-23T13:25:52;5.00;;;1.70;;
85312;SDS011;75717;50.496;7.560;2024-03-23T13:31:02;4.15;;;2.10;;
85312;SDS011;75717;50.496;7.560;2024-03-23T13:33:29;4.35;;;1.92;;
85312;SDS011;75717;50.496;7.560;2024-03-23T13:35:55;5.57;;;1.70;;
85312;SDS011;75717;50.496;7.560;2024-03-23T13:38:21;3.65;;;1.70;;
85312;SDS011;75717;50.496;7.560;2024-03-23T13:40:53;4.18;;;2.10;;
85312;SDS011;75717;50.496;7.560;2024-03-23T13:43:18;3.70;;;1.85;;
85312;SDS011;75717;50.496;7.560;2024-03-23T13:45:44;7.95;;;2.25;;
85312;SDS011;75717;50.496;7.560;2024-03-23T13:48:10;5.03;;;1.90;;
85312;SDS011;75717;50.496;7.560;2024-03-23T13:50:35;10.70;;;2.30;;
85312;SDS011;75717;50.496;7.560;2024-03-23T13:53:01;3.90;;;1.80;;
85312;SDS011;75717;50.496;7.560;2024-03-23T13:55:26;7.03;;;3.37;;
85312;SDS011;75717;50.496;7.560;2024-03-23T13:57:51;6.60;;;2.13;;
85312;SDS011;75717;50.496;7.560;2024-03-23T14:00:17;3.78;;;1.75;;
85312;SDS011;75717;50.496;7.560;2024-03-23T14:02:43;4.72;;;1.70;;
85312;SDS011;75717;50.496;7.560;2024-03-23T14:05:09;4.28;;;2.50;;
85312;SDS011;75717;50.496;7.560;2024-03-23T14:07:36;6.97;;;2.17;;
85312;SDS011;75717;50.496;7.560;2024-03-23T14:10:04;4.82;;;2.30;;
85312;SDS011;75717;50.496;7.560;2024-03-23T14:12:31;6.60;;;2.25;;
85312;SDS011;75717;50.496;7.560;2024-03-23T14:14:57;4.97;;;2.60;;
85312;SDS011;75717;50.496;7.560;2024-03-23T14:17:22;5.80;;;2.67;;
85312;SDS011;75717;50.496;7.560;2024-03-23T14:19:47;4.73;;;1.60;;
85312;SDS011;75717;50.496;7.560;2024-03-23T14:22:12;4.70;;;1.70;;
85312;SDS011;75717;50.496;7.560;2024-03-23T14:24:38;6.45;;;2.50;;
85312;SDS011;75717;50.496;7.560;2024-03-23T14:27:04;6.88;;;2.22;;
85312;SDS011;75717;50.496;7.560;2024-03-23T14:29:30;4.47;;;2.20;;
85312;SDS011;75717;50.496;7.560;2024-03-23T14:31:56;6.80;;;2.10;;
85312;SDS011;75717;50.496;7.560;2024-03-23T14:34:22;5.53;;;2.28;;
85312;SDS011;75717;50.496;7.560;2024-03-23T14:36:47;8.70;;;2.30;;
85312;SDS011;75717;50.496;7.560;2024-03-23T14:39:12;6.05;;;2.15;;
85312;SDS011;75717;50.496;7.560;2024-03-23T14:41:38;7.07;;;1.90;;
85312;SDS011;75717;50.496;7.560;2024-03-23T14:44:03;4.13;;;1.73;;
85312;SDS011;75717;50.496;7.560;2024-03-23T14:46:28;8.68;;;2.35;;
85312;SDS011;75717;50.496;7.560;2024-03-23T14:48:54;5.43;;;1.73;;
85312;SDS011;75717;50.496;7.560;2024-03-23T14:51:20;5.90;;;2.03;;
85312;SDS011;75717;50.496;7.560;2024-03-23T14:53:46;3.38;;;1.73;;
85312;SDS011;75717;50.496;7.560;2024-03-23T14:56:13;4.18;;;1.58;;
85312;SDS011;75717;50.496;7.560;2024-03-23T14:58:40;7.68;;;1.88;;
85312;SDS011;75717;50.496;7.560;2024-03-23T15:01:07;3.00;;;1.67;;
85312;SDS011;75717;50.496;7.560;2024-03-23T15:03:36;8.60;;;2.22;;
85312;SDS011;75717;50.496;7.560;2024-03-23T15:06:04;7.40;;;2.28;;
85312;SDS011;75717;50.496;7.560;2024-03-23T15:08:30;6.75;;;2.70;;
85312;SDS011;75717;50.496;7.560;2024-03-23T15:10:59;5.75;;;2.50;;
85312;SDS011;75717;50.496;7.560;2024-03-23T15:13:24;10.60;;;2.58;;
85312;SDS011;75717;50.496;7.560;2024-03-23T15:15:50;5.80;;;2.20;;
85312;SDS011;75717;50.496;7.560;2024-03-23T15:18:17;6.78;;;2.80;;
85312;SDS011;75717;50.496;7.560;2024-03-23T15:20:53;4.78;;;1.90;;
85312;SDS011;75717;50.496;7.560;2024-03-23T15:23:19;3.92;;;1.90;;
85312;SDS011;75717;50.496;7.560;2024-03-23T15:25:45;5.25;;;2.47;;
85312;SDS011;75717;50.496;7.560;2024-03-23T15:28:10;4.00;;;1.67;;
85312;SDS011;75717;50.496;7.560;2024-03-23T15:30:35;5.90;;;2.00;;
85312;SDS011;75717;50.496;7.560;2024-03-23T15:33:01;4.80;;;1.83;;
85312;SDS011;75717;50.496;7.560;2024-03-23T15:35:27;4.65;;;1.75;;
85312;SDS011;75717;50.496;7.560;2024-03-23T15:37:52;3.20;;;1.80;;
85312;SDS011;75717;50.496;7.560;2024-03-23T15:40:18;7.10;;;2.63;;
85312;SDS011;75717;50.496;7.560;2024-03-23T15:42:43;6.47;;;2.15;;
85312;SDS011;75717;50.496;7.560;2024-03-23T15:45:08;3.40;;;1.52;;
85312;SDS011;75717;50.496;7.560;2024-03-23T15:47:37;10.32;;;2.70;;
85312;SDS011;75717;50.496;7.560;2024-03-23T15:50:04;14.93;;;3.60;;
85312;SDS011;75717;50.496;7.560;2024-03-23T15:54:59;4.63;;;1.80;;
85312;SDS011;75717;50.496;7.560;2024-03-23T15:57:25;6.78;;;1.90;;
85312;SDS011;75717;50.496;7.560;2024-03-23T15:59:50;4.30;;;1.70;;